createdAt,value
2017-07-23T00:01:58.817Z,9.57
2017-07-23T00:04:33.247Z,9.98
2017-07-23T00:07:07.557Z,10.30
2017-07-23T00:09:42.109Z,11.57
2017-07-23T00:12:16.541Z,13.88
2017-07-23T00:14:50.818Z,11.32
2017-07-23T00:17:25.148Z,10.68
2017-07-23T00:19:59.853Z,11.18
2017-07-23T00:22:34.356Z,10.43
2017-07-23T00:25:08.996Z,12.13
2017-07-23T00:27:43.381Z,12.75
2017-07-23T00:30:17.692Z,12.35
2017-07-23T00:32:52.059Z,12.80
2017-07-23T00:35:26.536Z,13.62
2017-07-23T00:38:01.061Z,12.80
2017-07-23T00:40:36.420Z,13.57
2017-07-23T00:43:11.436Z,13.05
2017-07-23T00:45:47.721Z,12.98
2017-07-23T00:48:22.011Z,13.35
2017-07-23T00:50:56.363Z,13.90
2017-07-23T00:53:30.863Z,13.70
2017-07-23T00:56:05.209Z,14.05
2017-07-23T00:58:39.733Z,15.40
2017-07-23T01:01:14.213Z,15.98
2017-07-23T01:03:48.567Z,14.18
2017-07-23T01:06:23.003Z,15.23
2017-07-23T01:08:58.087Z,14.18
2017-07-23T01:11:32.631Z,14.95
2017-07-23T01:14:07.845Z,16.00
2017-07-23T01:16:43.002Z,16.25
2017-07-23T01:19:17.581Z,15.52
2017-07-23T01:21:52.064Z,15.15
2017-07-23T01:24:26.476Z,16.55
2017-07-23T01:27:00.945Z,15.82
2017-07-23T01:29:35.624Z,18.58
2017-07-23T01:32:09.897Z,16.60
2017-07-23T01:34:44.458Z,15.63
2017-07-23T01:37:18.889Z,17.50
2017-07-23T01:39:53.271Z,16.33
2017-07-23T01:42:27.593Z,17.50
2017-07-23T01:45:01.959Z,17.95
2017-07-23T01:47:36.481Z,18.25
2017-07-23T01:50:10.921Z,21.15
2017-07-23T01:52:45.452Z,20.45
2017-07-23T01:55:19.905Z,20.20
2017-07-23T01:57:54.381Z,21.10
2017-07-23T02:00:28.836Z,21.30
2017-07-23T02:03:03.173Z,20.33
2017-07-23T02:05:37.467Z,21.50
2017-07-23T02:08:11.801Z,22.37
2017-07-23T02:10:46.302Z,24.45
2017-07-23T02:13:20.839Z,25.85
2017-07-23T02:15:55.334Z,23.70
2017-07-23T02:18:29.778Z,23.33
2017-07-23T02:21:04.250Z,22.15
2017-07-23T02:23:38.563Z,21.20
2017-07-23T02:26:13.180Z,23.48
2017-07-23T02:28:47.536Z,23.52
2017-07-23T02:31:22.076Z,23.55
2017-07-23T02:33:56.385Z,24.63
2017-07-23T02:36:31.142Z,25.12
2017-07-23T02:39:05.624Z,27.08
2017-07-23T02:41:40.092Z,27.73
2017-07-23T02:44:14.384Z,26.48
2017-07-23T02:46:48.903Z,25.58
2017-07-23T02:49:23.336Z,27.30
2017-07-23T02:51:58.762Z,24.10
2017-07-23T02:54:33.200Z,27.17
2017-07-23T02:57:07.608Z,28.67
2017-07-23T02:59:42.152Z,26.55
2017-07-23T03:02:16.633Z,27.80
2017-07-23T03:04:51.077Z,27.50
2017-07-23T03:07:25.463Z,28.45
2017-07-23T03:09:59.893Z,30.33
2017-07-23T03:12:34.584Z,28.38
2017-07-23T03:15:09.072Z,27.10
2017-07-23T03:17:43.618Z,28.87
2017-07-23T03:20:18.888Z,27.77
2017-07-23T03:22:54.063Z,28.95
2017-07-23T03:25:28.640Z,28.75
2017-07-23T03:28:03.029Z,30.90
2017-07-23T03:30:37.532Z,30.83
2017-07-23T03:33:11.821Z,28.50
2017-07-23T03:35:46.318Z,30.40
2017-07-23T03:38:20.831Z,30.80
2017-07-23T03:40:55.234Z,28.23
2017-07-23T03:43:29.634Z,29.40
2017-07-23T03:46:04.041Z,29.85
2017-07-23T03:48:38.572Z,31.48
2017-07-23T03:51:13.873Z,27.85
2017-07-23T03:53:48.452Z,28.12
2017-07-23T03:56:22.933Z,27.23
2017-07-23T03:58:57.604Z,28.17
2017-07-23T04:01:31.914Z,27.65
2017-07-23T04:04:06.360Z,26.70
2017-07-23T04:06:40.830Z,25.60
2017-07-23T04:09:15.386Z,28.05
2017-07-23T04:11:49.868Z,24.05
2017-07-23T04:14:24.280Z,23.35
2017-07-23T04:16:59.528Z,21.42
2017-07-23T04:19:34.016Z,22.70
2017-07-23T04:22:08.454Z,23.67
2017-07-23T04:24:42.880Z,22.92
2017-07-23T04:27:17.366Z,24.50
2017-07-23T04:29:51.773Z,22.48
2017-07-23T04:32:26.067Z,24.87
2017-07-23T04:35:00.452Z,23.50
2017-07-23T04:37:34.990Z,22.70
2017-07-23T04:40:09.582Z,24.83
2017-07-23T04:42:44.030Z,24.35
2017-07-23T04:45:18.633Z,24.15
2017-07-23T04:47:53.001Z,22.40
2017-07-23T04:50:27.481Z,22.27
2017-07-23T04:53:01.764Z,21.55
2017-07-23T04:55:36.088Z,20.65
2017-07-23T04:58:10.610Z,23.27
2017-07-23T05:00:45.654Z,21.62
2017-07-23T05:03:20.131Z,22.35
2017-07-23T05:05:54.620Z,22.00
2017-07-23T05:08:29.176Z,23.23
2017-07-23T05:11:03.512Z,21.65
2017-07-23T05:13:38.056Z,24.10
2017-07-23T05:16:12.588Z,23.50
2017-07-23T05:18:47.820Z,22.65
2017-07-23T05:21:22.140Z,23.02
2017-07-23T05:23:56.688Z,22.20
2017-07-23T05:26:31.076Z,21.37
2017-07-23T05:29:05.407Z,22.98
2017-07-23T05:31:39.877Z,21.45
2017-07-23T05:34:14.152Z,22.75
2017-07-23T05:36:48.517Z,22.60
2017-07-23T05:39:22.915Z,24.00
2017-07-23T05:41:57.526Z,22.60
2017-07-23T05:44:32.004Z,23.08
2017-07-23T05:47:06.586Z,25.20
2017-07-23T05:49:40.901Z,24.15
2017-07-23T05:52:16.136Z,24.58
2017-07-23T05:54:50.585Z,25.12
2017-07-23T05:57:25.669Z,22.95
2017-07-23T06:00:00.007Z,23.50
2017-07-23T06:02:34.417Z,23.67
2017-07-23T06:05:08.785Z,23.20
2017-07-23T06:07:43.137Z,24.10
2017-07-23T06:10:17.552Z,24.70
2017-07-23T06:12:52.105Z,24.42
2017-07-23T06:15:26.464Z,25.62
2017-07-23T06:18:00.785Z,26.90
2017-07-23T06:20:35.128Z,26.73
2017-07-23T06:23:09.528Z,25.95
2017-07-23T06:25:44.148Z,25.77
2017-07-23T06:28:19.387Z,24.00
2017-07-23T06:30:53.765Z,27.85
2017-07-23T06:33:28.112Z,28.00
2017-07-23T06:36:02.652Z,27.98
2017-07-23T06:38:37.072Z,28.85
2017-07-23T06:41:11.417Z,31.25
2017-07-23T06:43:45.833Z,29.70
2017-07-23T06:46:20.229Z,29.23
2017-07-23T06:48:54.568Z,30.27
2017-07-23T06:51:29.049Z,31.25
2017-07-23T06:54:04.321Z,31.08
2017-07-23T06:56:38.752Z,35.20
2017-07-23T06:59:13.096Z,33.17
2017-07-23T07:01:47.547Z,33.97
2017-07-23T07:04:21.976Z,32.10
2017-07-23T07:06:57.140Z,32.17
2017-07-23T07:09:31.537Z,34.35
2017-07-23T07:12:06.021Z,35.53
2017-07-23T07:14:41.238Z,32.88
2017-07-23T07:17:15.725Z,33.72
2017-07-23T07:19:50.380Z,32.78
2017-07-23T07:22:24.751Z,34.30
2017-07-23T07:24:59.495Z,34.70
2017-07-23T07:27:33.808Z,35.47
2017-07-23T07:30:08.155Z,30.40
2017-07-23T07:32:43.403Z,28.20
2017-07-23T07:35:17.880Z,28.17
2017-07-23T07:37:52.415Z,26.90
2017-07-23T07:40:26.773Z,26.52
2017-07-23T07:43:01.083Z,24.80
2017-07-23T07:45:35.408Z,23.40
2017-07-23T07:48:09.752Z,24.40
2017-07-23T07:50:44.273Z,25.48
2017-07-23T07:53:19.202Z,25.67
2017-07-23T07:55:53.795Z,25.70
2017-07-23T07:58:29.062Z,25.50
2017-07-23T08:01:03.522Z,25.37
2017-07-23T08:03:38.028Z,23.75
2017-07-23T08:06:13.328Z,24.02
2017-07-23T08:08:47.761Z,23.40
2017-07-23T08:11:22.143Z,21.27
2017-07-23T08:13:56.614Z,20.23
2017-07-23T08:16:31.382Z,9.02
2017-07-23T08:19:06.474Z,6.35
2017-07-23T08:21:41.855Z,6.70
2017-07-23T08:24:16.249Z,7.05
2017-07-23T08:26:50.789Z,7.78
2017-07-23T08:29:25.299Z,7.10
2017-07-23T08:31:59.784Z,7.15
2017-07-23T08:34:34.321Z,7.37
2017-07-23T08:37:08.723Z,7.97
2017-07-23T08:39:43.973Z,7.53
2017-07-23T08:42:18.312Z,8.95
2017-07-23T08:44:53.561Z,8.70
2017-07-23T08:47:35.632Z,7.85
2017-07-23T08:50:10.021Z,8.50
2017-07-23T08:52:44.362Z,8.57
2017-07-23T08:55:18.833Z,11.15
2017-07-23T08:57:53.149Z,9.93
2017-07-23T09:00:27.457Z,8.68
2017-07-23T09:03:01.976Z,9.18
2017-07-23T09:05:36.422Z,9.25
2017-07-23T09:08:10.829Z,8.60
2017-07-23T09:10:45.149Z,8.27
2017-07-23T09:13:19.617Z,10.23
2017-07-23T09:15:53.982Z,9.95
2017-07-23T09:18:28.362Z,8.63
2017-07-23T09:21:02.873Z,7.90
2017-07-23T09:23:37.328Z,8.18
2017-07-23T09:26:11.769Z,7.47
2017-07-23T09:28:46.124Z,7.43
2017-07-23T09:31:20.473Z,6.82
2017-07-23T09:33:54.792Z,5.70
2017-07-23T09:36:29.332Z,4.97
2017-07-23T09:39:03.706Z,4.62
2017-07-23T09:41:38.200Z,5.43
2017-07-23T09:44:12.534Z,5.60
2017-07-23T09:46:46.972Z,4.78
2017-07-23T09:49:21.297Z,4.97
2017-07-23T09:51:56.473Z,5.93
2017-07-23T09:54:32.271Z,5.43
2017-07-23T09:57:07.456Z,5.55
2017-07-23T09:59:42.598Z,4.70
2017-07-23T10:02:16.909Z,4.53
2017-07-23T10:04:51.225Z,4.37
2017-07-23T10:07:25.856Z,4.20
2017-07-23T10:10:00.323Z,4.43
2017-07-23T10:12:34.955Z,4.57
2017-07-23T10:15:09.429Z,4.90
2017-07-23T10:17:44.806Z,5.10
2017-07-23T10:20:19.517Z,6.55
2017-07-23T10:22:53.816Z,5.50
2017-07-23T10:25:29.098Z,5.07
2017-07-23T10:28:03.585Z,5.93
2017-07-23T10:30:38.060Z,4.50
2017-07-23T10:33:12.575Z,4.70
2017-07-23T10:35:47.109Z,4.35
2017-07-23T10:38:21.895Z,3.35
2017-07-23T10:40:56.256Z,3.75
2017-07-23T10:43:30.682Z,3.70
2017-07-23T10:46:05.066Z,2.78
2017-07-23T10:48:39.472Z,3.35
2017-07-23T10:51:14.741Z,3.10
2017-07-23T10:53:49.285Z,2.80
2017-07-23T10:56:23.801Z,2.75
2017-07-23T10:58:58.268Z,2.80
2017-07-23T11:01:32.647Z,2.30
2017-07-23T11:04:07.787Z,2.10
2017-07-23T11:06:42.484Z,2.00
2017-07-23T11:09:16.949Z,1.40
2017-07-23T11:11:52.034Z,1.60
2017-07-23T11:14:26.383Z,1.50
2017-07-23T11:17:00.794Z,1.60
2017-07-23T11:19:35.249Z,1.60
2017-07-23T11:22:09.828Z,2.20
2017-07-23T11:24:44.156Z,1.17
2017-07-23T11:27:18.687Z,1.60
2017-07-23T11:29:53.210Z,2.30
2017-07-23T11:32:27.740Z,2.40
2017-07-23T11:35:02.240Z,2.20
2017-07-23T11:37:52.531Z,2.37
2017-07-23T11:40:27.000Z,1.83
2017-07-23T11:43:02.295Z,2.30
2017-07-23T11:45:36.646Z,1.95
2017-07-23T11:48:11.845Z,2.13
2017-07-23T11:50:46.327Z,2.07
2017-07-23T11:53:20.647Z,2.33
2017-07-23T11:55:54.965Z,1.90
2017-07-23T11:58:29.289Z,2.33
2017-07-23T12:01:03.579Z,1.95
2017-07-23T12:03:38.044Z,2.00
2017-07-23T12:06:12.564Z,2.12
2017-07-23T12:08:46.892Z,1.75
2017-07-23T12:11:21.279Z,2.83
2017-07-23T12:13:56.655Z,1.80
2017-07-23T12:16:31.771Z,2.20
2017-07-23T12:19:06.224Z,2.30
2017-07-23T12:21:40.531Z,2.83
2017-07-23T12:24:15.022Z,2.90
2017-07-23T12:26:50.180Z,4.03
2017-07-23T12:29:24.523Z,3.03
2017-07-23T12:31:59.024Z,2.80
2017-07-23T12:34:33.516Z,2.90
2017-07-23T12:37:07.912Z,3.33
2017-07-23T12:39:42.368Z,3.17
2017-07-23T12:42:16.901Z,3.40
2017-07-23T12:44:51.308Z,3.60
2017-07-23T12:47:25.937Z,1.50
2017-07-23T12:50:00.414Z,2.78
2017-07-23T12:52:34.973Z,2.37
2017-07-23T12:55:13.619Z,2.97
2017-07-23T12:57:48.148Z,3.90
2017-07-23T13:00:22.596Z,3.92
2017-07-23T13:02:57.576Z,5.00
2017-07-23T13:05:31.931Z,5.12
2017-07-23T13:08:07.289Z,5.00
2017-07-23T13:10:41.821Z,3.97
2017-07-23T13:13:16.149Z,5.28
2017-07-23T13:15:50.588Z,4.20
2017-07-23T13:18:24.920Z,4.03
2017-07-23T13:20:59.233Z,4.32
2017-07-23T13:23:33.701Z,4.32
2017-07-23T13:26:08.175Z,3.60
2017-07-23T13:28:42.720Z,3.72
2017-07-23T13:31:17.077Z,4.00
2017-07-23T13:33:51.562Z,3.17
2017-07-23T13:36:25.840Z,3.70
2017-07-23T13:39:00.166Z,4.45
2017-07-23T13:41:34.568Z,3.73
2017-07-23T13:44:09.004Z,2.70
2017-07-23T13:46:43.477Z,2.80
2017-07-23T13:49:17.848Z,2.97
2017-07-23T13:51:52.376Z,2.97
2017-07-23T13:54:26.788Z,2.67
2017-07-23T13:57:01.290Z,2.10
2017-07-23T13:59:35.886Z,2.53
2017-07-23T14:02:12.158Z,2.37
2017-07-23T14:04:46.717Z,2.53
2017-07-23T14:07:21.197Z,2.77
2017-07-23T14:09:55.517Z,2.60
2017-07-23T14:12:29.881Z,2.30
2017-07-23T14:15:04.357Z,2.30
2017-07-23T14:17:38.864Z,1.97
2017-07-23T14:20:13.494Z,2.00
2017-07-23T14:22:47.860Z,2.00
2017-07-23T14:25:22.312Z,2.20
2017-07-23T14:27:56.779Z,1.70
2017-07-23T14:30:31.921Z,2.17
2017-07-23T14:33:06.458Z,2.10
2017-07-23T14:35:40.982Z,2.13
2017-07-23T14:38:15.373Z,2.47
2017-07-23T14:40:49.847Z,2.77
2017-07-23T14:43:24.312Z,2.23
2017-07-23T14:45:58.838Z,2.13
2017-07-23T14:48:33.270Z,2.23
2017-07-23T14:51:08.457Z,2.43
2017-07-23T14:53:42.979Z,2.43
2017-07-23T14:56:17.349Z,2.40
2017-07-23T14:58:51.835Z,3.23
2017-07-23T15:01:26.127Z,3.50
2017-07-23T15:04:00.391Z,3.00
2017-07-23T15:06:34.833Z,2.87
2017-07-23T15:09:09.211Z,2.63
2017-07-23T15:11:43.855Z,2.70
2017-07-23T15:14:18.256Z,2.93
2017-07-23T15:16:52.604Z,2.67
2017-07-23T15:19:26.986Z,3.30
2017-07-23T15:22:01.516Z,3.27
2017-07-23T15:24:35.873Z,3.40
2017-07-23T15:27:10.205Z,2.70
2017-07-23T15:29:44.541Z,2.60
2017-07-23T15:32:19.148Z,3.63
2017-07-23T15:34:54.417Z,3.63
2017-07-23T15:37:28.893Z,3.03
2017-07-23T15:40:03.378Z,3.23
2017-07-23T15:42:37.869Z,2.70
2017-07-23T15:45:12.194Z,3.23
2017-07-23T15:47:46.672Z,4.00
2017-07-23T15:50:21.860Z,2.70
2017-07-23T15:52:56.721Z,2.37
2017-07-23T15:55:31.228Z,2.40
2017-07-23T15:58:05.594Z,2.10
2017-07-23T16:00:40.068Z,2.80
2017-07-23T16:03:14.619Z,2.50
2017-07-23T16:05:49.033Z,2.33
2017-07-23T16:08:23.544Z,2.50
2017-07-23T16:10:58.788Z,1.90
2017-07-23T16:13:33.245Z,2.10
2017-07-23T16:16:07.664Z,2.80
2017-07-23T16:18:42.072Z,2.13
2017-07-23T16:21:16.542Z,2.47
2017-07-23T16:23:50.983Z,2.40
2017-07-23T16:26:25.281Z,2.10
2017-07-23T16:29:00.441Z,2.53
2017-07-23T16:31:34.976Z,2.07
2017-07-23T16:34:09.475Z,2.00
2017-07-23T16:36:43.776Z,2.00
2017-07-23T16:39:18.327Z,1.90
2017-07-23T16:41:52.698Z,2.13
2017-07-23T16:44:27.969Z,2.10
2017-07-23T16:47:03.995Z,2.30
2017-07-23T16:49:38.529Z,1.90
2017-07-23T16:52:13.659Z,2.33
2017-07-23T16:54:48.136Z,2.15
2017-07-23T16:57:22.899Z,2.20
2017-07-23T16:59:58.636Z,2.30
2017-07-23T17:02:33.133Z,2.10
2017-07-23T17:05:07.633Z,2.77
2017-07-23T17:07:42.040Z,1.97
2017-07-23T17:10:16.392Z,1.95
2017-07-23T17:12:50.780Z,2.30
2017-07-23T17:15:25.165Z,2.60
2017-07-23T17:17:59.826Z,2.22
2017-07-23T17:20:34.263Z,1.85
2017-07-23T17:23:09.369Z,2.75
2017-07-23T17:25:44.469Z,1.92
2017-07-23T17:28:18.945Z,2.20
2017-07-23T17:30:53.392Z,2.17
2017-07-23T17:33:27.886Z,2.20
2017-07-23T17:36:02.272Z,2.10
2017-07-23T17:38:36.965Z,2.08
2017-07-23T17:41:12.027Z,2.40
2017-07-23T17:43:46.372Z,2.40
2017-07-23T17:46:20.745Z,2.80
2017-07-23T17:48:55.220Z,2.35
2017-07-23T17:51:29.724Z,2.62
2017-07-23T17:54:04.140Z,2.53
2017-07-23T17:56:39.353Z,2.65
2017-07-23T17:59:13.703Z,3.85
2017-07-23T18:01:48.817Z,3.25
2017-07-23T18:04:23.224Z,3.43
2017-07-23T18:06:57.749Z,4.10
2017-07-23T18:09:32.244Z,3.37
2017-07-23T18:12:06.629Z,3.70
2017-07-23T18:14:41.133Z,4.07
2017-07-23T18:17:15.484Z,2.85
2017-07-23T18:19:49.923Z,3.33
2017-07-23T18:22:24.421Z,2.95
2017-07-23T18:24:58.853Z,3.10
2017-07-23T18:27:33.234Z,3.25
2017-07-23T18:30:07.536Z,2.92
2017-07-23T18:32:42.034Z,2.83
2017-07-23T18:35:16.536Z,3.10
2017-07-23T18:37:51.076Z,3.50
2017-07-23T18:40:25.534Z,2.90
2017-07-23T18:42:59.825Z,3.12
2017-07-23T18:45:34.116Z,2.60
2017-07-23T18:48:08.472Z,3.20
2017-07-23T18:50:43.591Z,3.55
2017-07-23T18:53:18.045Z,3.70
2017-07-23T18:55:52.458Z,3.10
2017-07-23T18:58:26.872Z,3.20
2017-07-23T19:01:01.303Z,2.95
2017-07-23T19:03:35.625Z,3.67
2017-07-23T19:06:09.895Z,3.75
2017-07-23T19:08:45.186Z,3.58
2017-07-23T19:11:19.485Z,3.08
2017-07-23T19:13:53.807Z,3.05
2017-07-23T19:16:28.357Z,3.42
2017-07-23T19:19:02.646Z,3.22
2017-07-23T19:21:38.035Z,3.12
2017-07-23T19:24:13.081Z,3.70
2017-07-23T19:26:47.532Z,3.62
2017-07-23T19:29:21.824Z,3.75
2017-07-23T19:31:56.164Z,4.45
2017-07-23T19:34:30.672Z,4.10
2017-07-23T19:37:05.164Z,4.32
2017-07-23T19:39:39.597Z,3.97
2017-07-23T19:42:14.229Z,3.83
2017-07-23T19:44:48.749Z,4.05
2017-07-23T19:47:24.001Z,3.55
2017-07-23T19:49:58.452Z,3.30
2017-07-23T19:52:32.801Z,3.20
2017-07-23T19:55:07.387Z,3.80
2017-07-23T19:57:42.830Z,3.80
2017-07-23T20:00:17.291Z,3.85
2017-07-23T20:02:51.677Z,4.40
2017-07-23T20:05:25.966Z,3.22
2017-07-23T20:08:00.302Z,3.60
2017-07-23T20:10:34.711Z,3.70
2017-07-23T20:13:09.448Z,3.30
2017-07-23T20:15:43.949Z,4.32
2017-07-23T20:18:18.400Z,4.05
2017-07-23T20:20:52.770Z,4.10
2017-07-23T20:23:27.220Z,3.50
2017-07-23T20:26:01.657Z,3.40
2017-07-23T20:28:36.092Z,4.00
2017-07-23T20:31:11.421Z,3.75
2017-07-23T20:33:47.753Z,4.03
2017-07-23T20:36:22.575Z,3.08
2017-07-23T20:39:03.523Z,4.75
2017-07-23T20:41:45.793Z,4.28
2017-07-23T20:44:20.284Z,4.00
2017-07-23T20:46:54.624Z,3.62
2017-07-23T20:49:29.128Z,4.18
2017-07-23T20:52:05.020Z,4.68
2017-07-23T20:54:41.106Z,4.43
2017-07-23T20:57:15.549Z,4.30
2017-07-23T20:59:49.972Z,3.60
2017-07-23T21:02:24.308Z,4.47
2017-07-23T21:04:59.436Z,3.42
2017-07-23T21:07:34.244Z,4.15
2017-07-23T21:10:08.736Z,4.87
2017-07-23T21:12:43.184Z,4.57
2017-07-23T21:15:17.961Z,3.62
2017-07-23T21:17:53.177Z,5.12
2017-07-23T21:20:28.372Z,4.90
2017-07-23T21:23:03.016Z,4.28
2017-07-23T21:25:37.524Z,4.15
2017-07-23T21:28:12.207Z,3.97
2017-07-23T21:30:46.518Z,3.97
2017-07-23T21:33:20.932Z,3.75
2017-07-23T21:35:55.399Z,4.37
2017-07-23T21:38:29.786Z,3.75
2017-07-23T21:41:04.061Z,4.03
2017-07-23T21:43:38.844Z,4.07
2017-07-23T21:46:13.152Z,4.07
2017-07-23T21:48:47.852Z,3.95
2017-07-23T21:51:22.303Z,3.40
2017-07-23T21:53:57.863Z,4.62
2017-07-23T21:56:32.189Z,4.30
2017-07-23T21:59:06.675Z,5.30
2017-07-23T22:01:41.144Z,4.30
2017-07-23T22:04:15.557Z,4.40
2017-07-23T22:06:50.001Z,4.05
2017-07-23T22:09:24.426Z,4.15
2017-07-23T22:11:58.848Z,4.60
2017-07-23T22:14:33.166Z,4.25
2017-07-23T22:17:07.592Z,4.10
2017-07-23T22:19:42.068Z,4.62
2017-07-23T22:22:16.772Z,3.83
2017-07-23T22:24:51.088Z,4.50
2017-07-23T22:27:25.616Z,4.87
2017-07-23T22:29:59.945Z,4.75
2017-07-23T22:32:34.279Z,4.12
2017-07-23T22:35:08.712Z,4.18
2017-07-23T22:37:43.231Z,5.00
2017-07-23T22:40:18.463Z,4.85
2017-07-23T22:42:52.916Z,5.30
2017-07-23T22:45:27.408Z,4.20
2017-07-23T22:48:01.819Z,4.95
2017-07-23T22:50:40.175Z,4.70
2017-07-23T22:53:15.485Z,5.35
2017-07-23T22:55:49.837Z,5.22
2017-07-23T22:58:24.208Z,4.82
2017-07-23T23:00:58.589Z,5.03
2017-07-23T23:03:33.136Z,4.12
2017-07-23T23:06:08.461Z,5.28
2017-07-23T23:08:42.932Z,4.45
2017-07-23T23:11:17.347Z,4.50
2017-07-23T23:13:51.852Z,4.50
2017-07-23T23:16:27.215Z,4.80
2017-07-23T23:19:01.638Z,4.47
2017-07-23T23:21:36.013Z,4.00
2017-07-23T23:24:10.435Z,4.55
2017-07-23T23:26:44.810Z,4.85
2017-07-23T23:29:19.297Z,5.05
2017-07-23T23:31:53.816Z,4.90
2017-07-23T23:34:28.204Z,5.60
2017-07-23T23:37:02.768Z,5.70
2017-07-23T23:39:37.249Z,5.80
2017-07-23T23:42:11.564Z,5.62
2017-07-23T23:44:45.996Z,5.32
2017-07-23T23:47:20.428Z,6.25
2017-07-23T23:49:54.936Z,5.68
2017-07-23T23:52:29.380Z,6.60
2017-07-23T23:55:04.588Z,5.45
2017-07-23T23:57:39.092Z,6.30
